createdAt,value
2018-07-06T00:00:09.257Z,88.6
2018-07-06T00:01:10.620Z,88.6
2018-07-06T00:02:11.982Z,88.8
2018-07-06T00:03:13.339Z,88.6
2018-07-06T00:04:14.716Z,88.6
2018-07-06T00:05:16.075Z,88.6
2018-07-06T00:06:17.439Z,88.6
2018-07-06T00:07:18.796Z,88.9
2018-07-06T00:08:20.161Z,89.1
2018-07-06T00:09:21.525Z,89.3
2018-07-06T00:10:22.885Z,89.4
2018-07-06T00:11:24.249Z,89.0
2018-07-06T00:12:25.687Z,89.2
2018-07-06T00:13:26.969Z,89.2
2018-07-06T00:14:28.328Z,89.1
2018-07-06T00:15:29.686Z,89.2
2018-07-06T00:16:31.055Z,89.2
2018-07-06T00:17:32.428Z,88.9
2018-07-06T00:18:33.791Z,88.9
2018-07-06T00:19:35.147Z,89.2
2018-07-06T00:20:36.497Z,89.2
2018-07-06T00:21:37.854Z,89.6
2018-07-06T00:22:39.227Z,89.6
2018-07-06T00:23:40.592Z,89.6
2018-07-06T00:24:41.964Z,89.7
2018-07-06T00:25:43.319Z,89.4
2018-07-06T00:26:44.699Z,89.6
2018-07-06T00:27:46.060Z,89.6
2018-07-06T00:28:47.416Z,89.6
2018-07-06T00:29:48.785Z,89.2
2018-07-06T00:30:50.149Z,89.6
2018-07-06T00:31:51.513Z,89.6
2018-07-06T00:32:52.869Z,89.7
2018-07-06T00:33:54.234Z,89.6
2018-07-06T00:34:55.585Z,89.6
2018-07-06T00:35:56.959Z,89.5
2018-07-06T00:36:58.314Z,89.4
2018-07-06T00:37:59.697Z,89.9
2018-07-06T00:39:01.064Z,89.4
2018-07-06T00:40:02.473Z,89.7
2018-07-06T00:41:03.831Z,89.5
2018-07-06T00:42:05.195Z,89.6
2018-07-06T00:43:06.549Z,89.6
2018-07-06T00:44:07.915Z,89.4
2018-07-06T00:45:09.284Z,89.6
2018-07-06T00:46:10.645Z,89.4
2018-07-06T00:47:12.010Z,89.6
2018-07-06T00:48:13.355Z,89.4
2018-07-06T00:49:14.722Z,89.5
2018-07-06T00:50:16.092Z,89.7
2018-07-06T00:51:17.450Z,89.8
2018-07-06T00:52:18.816Z,89.5
2018-07-06T00:53:20.189Z,89.8
2018-07-06T00:54:21.607Z,89.5
2018-07-06T00:55:22.965Z,89.7
2018-07-06T00:56:24.372Z,89.8
2018-07-06T00:57:25.690Z,89.4
2018-07-06T00:58:27.052Z,89.5
2018-07-06T00:59:28.425Z,89.7
2018-07-06T01:00:29.789Z,89.8
2018-07-06T01:01:31.198Z,89.8
2018-07-06T01:02:32.537Z,89.7
2018-07-06T01:03:33.890Z,89.7
2018-07-06T01:04:35.252Z,89.4
2018-07-06T01:05:36.612Z,89.8
2018-07-06T01:06:37.977Z,90.0
2018-07-06T01:07:39.346Z,90.5
2018-07-06T01:08:40.702Z,90.1
2018-07-06T01:09:42.112Z,90.0
2018-07-06T01:10:44.388Z,90.2
2018-07-06T01:11:45.756Z,90.3
2018-07-06T01:12:47.146Z,90.1
2018-07-06T01:13:48.500Z,90.0
2018-07-06T01:14:49.868Z,90.0
2018-07-06T01:15:51.221Z,89.9
2018-07-06T01:16:52.586Z,90.0
2018-07-06T01:17:53.940Z,90.0
2018-07-06T01:18:55.306Z,89.9
2018-07-06T01:19:56.671Z,90.3
2018-07-06T01:20:58.037Z,90.1
2018-07-06T01:21:59.396Z,90.0
2018-07-06T01:23:00.764Z,89.9
2018-07-06T01:24:02.133Z,89.9
2018-07-06T01:25:03.485Z,90.3
2018-07-06T01:26:04.856Z,89.9
2018-07-06T01:27:06.217Z,90.2
2018-07-06T01:28:07.576Z,89.9
2018-07-06T01:29:08.929Z,89.8
2018-07-06T01:30:10.307Z,89.8
2018-07-06T01:31:11.669Z,89.9
2018-07-06T01:32:13.028Z,90.2
2018-07-06T01:33:15.005Z,90.2
2018-07-06T01:34:16.362Z,89.6
2018-07-06T01:35:17.724Z,90.2
2018-07-06T01:36:19.092Z,90.2
2018-07-06T01:37:20.460Z,90.5
2018-07-06T01:38:21.815Z,90.0
2018-07-06T01:39:23.182Z,90.5
2018-07-06T01:40:24.540Z,90.6
2018-07-06T01:41:25.906Z,89.8
2018-07-06T01:42:27.267Z,90.6
2018-07-06T01:43:28.630Z,90.4
2018-07-06T01:44:29.986Z,89.7
2018-07-06T01:45:31.346Z,89.9
2018-07-06T01:46:32.704Z,90.1
2018-07-06T01:47:34.081Z,89.8
2018-07-06T01:48:35.450Z,89.9
2018-07-06T01:49:36.809Z,90.0
2018-07-06T01:50:38.171Z,89.9
2018-07-06T01:51:39.546Z,89.8
2018-07-06T01:52:40.901Z,90.0
2018-07-06T01:53:42.266Z,89.9
2018-07-06T01:54:43.652Z,90.0
2018-07-06T01:55:45.031Z,89.9
2018-07-06T01:56:46.391Z,89.8
2018-07-06T01:57:47.768Z,90.5
2018-07-06T01:58:49.127Z,90.6
2018-07-06T01:59:50.489Z,90.1
2018-07-06T02:00:51.846Z,90.4
2018-07-06T02:01:53.207Z,90.3
2018-07-06T02:02:54.573Z,90.3
2018-07-06T02:03:55.938Z,90.2
2018-07-06T02:04:57.300Z,90.2
2018-07-06T02:05:58.667Z,90.5
2018-07-06T02:07:00.023Z,90.5
2018-07-06T02:08:01.378Z,90.2
2018-07-06T02:09:02.753Z,90.3
2018-07-06T02:10:04.103Z,90.0
2018-07-06T02:11:05.463Z,90.5
2018-07-06T02:12:06.818Z,90.4
2018-07-06T02:13:08.186Z,90.2
2018-07-06T02:14:09.546Z,90.1
2018-07-06T02:15:12.768Z,90.3
2018-07-06T02:16:14.806Z,90.5
2018-07-06T02:17:16.168Z,90.6
2018-07-06T02:18:17.521Z,90.5
2018-07-06T02:19:18.891Z,90.1
2018-07-06T02:20:20.256Z,90.4
2018-07-06T02:21:21.612Z,90.4
2018-07-06T02:22:22.963Z,90.9
2018-07-06T02:23:24.327Z,90.4
2018-07-06T02:24:25.693Z,90.3
2018-07-06T02:25:27.048Z,90.1
2018-07-06T02:26:28.420Z,90.1
2018-07-06T02:27:29.781Z,90.4
2018-07-06T02:28:31.137Z,90.1
2018-07-06T02:29:32.497Z,90.2
2018-07-06T02:30:33.861Z,90.4
2018-07-06T02:31:35.211Z,90.4
2018-07-06T02:32:36.573Z,90.2
2018-07-06T02:33:37.936Z,90.4
2018-07-06T02:34:39.293Z,90.4
2018-07-06T02:35:40.663Z,90.3
2018-07-06T02:36:42.034Z,90.6
2018-07-06T02:37:43.389Z,90.0
2018-07-06T02:38:44.748Z,90.4
2018-07-06T02:39:46.102Z,90.6
2018-07-06T02:40:47.471Z,90.0
2018-07-06T02:41:48.846Z,90.1
2018-07-06T02:42:50.201Z,90.4
2018-07-06T02:43:51.557Z,90.4
2018-07-06T02:44:52.917Z,90.4
2018-07-06T02:45:54.279Z,90.3
2018-07-06T02:46:55.653Z,90.3
2018-07-06T02:47:57.003Z,90.6
2018-07-06T02:48:58.376Z,90.6
2018-07-06T02:49:59.748Z,90.3
2018-07-06T02:51:01.109Z,90.5
2018-07-06T02:52:02.474Z,90.8
2018-07-06T02:53:03.832Z,90.8
2018-07-06T02:54:05.191Z,90.7
2018-07-06T02:55:06.564Z,90.7
2018-07-06T02:56:07.927Z,90.9
2018-07-06T02:57:09.284Z,90.6
2018-07-06T02:58:10.652Z,90.8
2018-07-06T02:59:12.014Z,90.9
2018-07-06T03:00:13.377Z,91.0
2018-07-06T03:01:14.742Z,91.0
2018-07-06T03:02:16.109Z,91.1
2018-07-06T03:03:17.472Z,91.4
2018-07-06T03:04:18.892Z,91.0
2018-07-06T03:05:20.252Z,91.1
2018-07-06T03:06:21.617Z,91.0
2018-07-06T03:07:22.987Z,91.0
2018-07-06T03:08:24.354Z,91.2
2018-07-06T03:09:25.714Z,91.3
2018-07-06T03:10:27.084Z,90.8
2018-07-06T03:11:28.447Z,91.3
2018-07-06T03:12:29.823Z,91.0
2018-07-06T03:13:31.193Z,91.2
2018-07-06T03:14:32.566Z,91.2
2018-07-06T03:15:33.918Z,91.0
2018-07-06T03:16:35.296Z,90.9
2018-07-06T03:17:36.652Z,90.7
2018-07-06T03:18:38.029Z,90.9
2018-07-06T03:19:39.378Z,91.0
2018-07-06T03:20:40.743Z,91.0
2018-07-06T03:21:42.116Z,90.9
2018-07-06T03:22:43.472Z,91.7
2018-07-06T03:23:44.843Z,91.7
2018-07-06T03:24:46.215Z,91.7
2018-07-06T03:25:47.570Z,91.9
2018-07-06T03:26:48.938Z,91.9
2018-07-06T03:27:50.324Z,91.9
2018-07-06T03:28:51.820Z,91.9
2018-07-06T03:29:52.993Z,91.7
2018-07-06T03:30:54.357Z,91.6
2018-07-06T03:31:55.724Z,91.7
2018-07-06T03:32:57.099Z,91.6
2018-07-06T03:33:58.465Z,91.6
2018-07-06T03:34:59.832Z,91.6
2018-07-06T03:36:01.195Z,91.2
2018-07-06T03:37:02.557Z,91.6
2018-07-06T03:38:03.927Z,90.9
2018-07-06T03:39:05.284Z,91.1
2018-07-06T03:40:06.648Z,90.9
2018-07-06T03:41:08.023Z,90.8
2018-07-06T03:42:09.383Z,90.9
2018-07-06T03:43:10.752Z,90.9
2018-07-06T03:44:12.117Z,90.9
2018-07-06T03:45:13.489Z,91.7
2018-07-06T03:46:14.853Z,90.9
2018-07-06T03:47:16.213Z,91.1
2018-07-06T03:48:17.574Z,90.9
2018-07-06T03:49:18.939Z,90.8
2018-07-06T03:50:20.309Z,91.2
2018-07-06T03:51:21.674Z,91.1
2018-07-06T03:52:23.049Z,91.2
2018-07-06T03:53:24.423Z,91.6
2018-07-06T03:54:25.788Z,91.6
2018-07-06T03:55:27.153Z,91.6
2018-07-06T03:56:28.534Z,91.6
2018-07-06T03:57:29.894Z,91.7
2018-07-06T03:58:31.269Z,91.1
2018-07-06T03:59:32.643Z,91.8
2018-07-06T04:00:34.017Z,90.8
2018-07-06T04:01:35.379Z,91.7
2018-07-06T04:02:36.747Z,90.9
2018-07-06T04:03:38.122Z,90.9
2018-07-06T04:04:39.484Z,90.9
2018-07-06T04:05:40.857Z,91.9
2018-07-06T04:06:42.247Z,91.7
2018-07-06T04:07:44.148Z,91.7
2018-07-06T04:08:45.514Z,91.7
2018-07-06T04:09:46.883Z,91.6
2018-07-06T04:10:48.260Z,91.6
2018-07-06T04:11:49.614Z,91.7
2018-07-06T04:12:50.994Z,91.8
2018-07-06T04:13:52.363Z,90.9
2018-07-06T04:14:53.738Z,91.1
2018-07-06T04:15:55.110Z,91.2
2018-07-06T04:16:56.459Z,90.8
2018-07-06T04:17:57.844Z,91.2
2018-07-06T04:18:59.205Z,91.2
2018-07-06T04:20:00.573Z,91.2
2018-07-06T04:21:01.933Z,90.7
2018-07-06T04:22:03.311Z,91.0
2018-07-06T04:23:04.674Z,91.3
2018-07-06T04:24:06.045Z,90.7
2018-07-06T04:25:07.429Z,90.7
2018-07-06T04:26:08.792Z,91.0
2018-07-06T04:27:10.158Z,91.2
2018-07-06T04:28:11.525Z,91.0
2018-07-06T04:29:12.889Z,91.0
2018-07-06T04:30:14.291Z,91.0
2018-07-06T04:31:15.669Z,91.1
2018-07-06T04:32:17.118Z,91.1
2018-07-06T04:33:18.485Z,90.9
2018-07-06T04:34:19.861Z,90.8
2018-07-06T04:35:21.238Z,90.9
2018-07-06T04:36:22.597Z,91.2
2018-07-06T04:37:23.963Z,91.0
2018-07-06T04:38:25.325Z,91.0
2018-07-06T04:39:26.702Z,91.0
2018-07-06T04:40:28.069Z,91.0
2018-07-06T04:41:29.424Z,91.0
2018-07-06T04:42:30.803Z,91.1
2018-07-06T04:43:32.168Z,90.9
2018-07-06T04:44:33.529Z,91.0
2018-07-06T04:45:34.912Z,90.8
2018-07-06T04:46:36.273Z,90.8
2018-07-06T04:47:37.659Z,90.6
2018-07-06T04:48:39.024Z,90.7
2018-07-06T04:49:40.410Z,91.0
2018-07-06T04:50:41.770Z,90.8
2018-07-06T04:51:43.134Z,90.6
2018-07-06T04:52:44.540Z,90.8
2018-07-06T04:53:45.909Z,90.6
2018-07-06T04:54:48.034Z,90.6
2018-07-06T04:55:49.409Z,90.7
2018-07-06T04:56:54.053Z,90.6
2018-07-06T04:57:55.261Z,90.7
2018-07-06T04:58:56.648Z,90.6
2018-07-06T04:59:58.080Z,90.7
2018-07-06T05:00:59.345Z,90.6
2018-07-06T05:02:00.720Z,90.9
2018-07-06T05:03:02.103Z,90.5
2018-07-06T05:04:03.484Z,90.2
2018-07-06T05:05:05.490Z,90.3
2018-07-06T05:06:06.867Z,90.2
2018-07-06T05:07:08.310Z,90.2
2018-07-06T05:08:09.685Z,90.2
2018-07-06T05:09:11.050Z,90.2
2018-07-06T05:10:12.420Z,90.5
2018-07-06T05:11:14.303Z,90.7
2018-07-06T05:12:15.687Z,90.6
2018-07-06T05:13:17.051Z,90.0
2018-07-06T05:14:18.437Z,89.9
2018-07-06T05:15:19.804Z,89.9
2018-07-06T05:16:21.174Z,90.0
2018-07-06T05:17:22.540Z,90.2
2018-07-06T05:18:23.925Z,90.7
2018-07-06T05:19:25.290Z,90.2
2018-07-06T05:20:26.663Z,90.2
2018-07-06T05:21:28.025Z,89.6
2018-07-06T05:22:29.434Z,90.2
2018-07-06T05:23:30.782Z,90.0
2018-07-06T05:24:32.150Z,90.0
2018-07-06T05:25:33.525Z,90.0
2018-07-06T05:26:34.905Z,89.8
2018-07-06T05:27:36.270Z,89.9
2018-07-06T05:28:37.648Z,90.0
2018-07-06T05:29:39.009Z,89.9
2018-07-06T05:30:40.381Z,90.2
2018-07-06T05:31:41.766Z,90.1
2018-07-06T05:32:43.139Z,89.8
2018-07-06T05:33:45.281Z,90.0
2018-07-06T05:34:46.655Z,89.6
2018-07-06T05:35:48.026Z,89.6
2018-07-06T05:36:49.392Z,89.8
2018-07-06T05:37:50.817Z,89.5
2018-07-06T05:38:52.144Z,89.4
2018-07-06T05:39:53.512Z,89.7
2018-07-06T05:40:54.876Z,89.7
2018-07-06T05:41:56.250Z,89.5
2018-07-06T05:42:57.623Z,89.7
2018-07-06T05:43:59.001Z,89.7
2018-07-06T05:45:00.376Z,89.3
2018-07-06T05:46:01.768Z,89.6
2018-07-06T05:47:03.145Z,89.6
2018-07-06T05:48:04.525Z,89.2
2018-07-06T05:49:05.890Z,88.9
2018-07-06T05:50:07.270Z,89.2
2018-07-06T05:51:08.676Z,88.9
2018-07-06T05:52:10.118Z,89.2
2018-07-06T05:53:11.444Z,88.5
2018-07-06T05:54:12.841Z,88.6
2018-07-06T05:55:14.255Z,88.8
2018-07-06T05:56:15.621Z,88.9
2018-07-06T05:57:17.030Z,88.6
2018-07-06T05:58:18.500Z,88.5
2018-07-06T05:59:19.900Z,88.2
2018-07-06T06:00:21.265Z,88.4
2018-07-06T06:01:22.650Z,88.2
2018-07-06T06:02:24.032Z,88.2
2018-07-06T06:03:25.419Z,88.4
2018-07-06T06:04:26.805Z,88.1
2018-07-06T06:05:28.240Z,88.1
2018-07-06T06:06:29.616Z,87.9
2018-07-06T06:07:30.991Z,87.9
2018-07-06T06:08:32.381Z,87.9
2018-07-06T06:09:33.762Z,88.0
2018-07-06T06:10:35.149Z,87.6
2018-07-06T06:11:36.501Z,87.4
2018-07-06T06:12:37.911Z,87.8
2018-07-06T06:13:39.294Z,87.7
2018-07-06T06:14:40.686Z,87.9
2018-07-06T06:15:42.050Z,87.8
2018-07-06T06:16:43.501Z,87.1
2018-07-06T06:17:44.871Z,87.3
2018-07-06T06:18:46.360Z,87.4
2018-07-06T06:19:47.665Z,87.2
2018-07-06T06:20:49.046Z,87.6
2018-07-06T06:21:50.435Z,86.9
2018-07-06T06:22:51.806Z,86.8
2018-07-06T06:23:53.186Z,87.0
2018-07-06T06:24:54.633Z,86.9
2018-07-06T06:25:55.912Z,86.5
2018-07-06T06:26:57.281Z,86.6
2018-07-06T06:27:58.676Z,86.8
2018-07-06T06:29:00.052Z,86.7
2018-07-06T06:30:01.442Z,86.3
2018-07-06T06:31:02.825Z,86.3
2018-07-06T06:32:04.192Z,86.2
2018-07-06T06:33:05.655Z,86.4
2018-07-06T06:34:06.957Z,86.4
2018-07-06T06:35:08.326Z,86.2
2018-07-06T06:36:09.705Z,86.1
2018-07-06T06:37:11.086Z,86.2
2018-07-06T06:38:12.466Z,86.3
2018-07-06T06:39:13.855Z,86.2
2018-07-06T06:40:15.233Z,86.0
2018-07-06T06:41:16.615Z,85.9
2018-07-06T06:42:17.997Z,85.2
2018-07-06T06:43:19.373Z,85.2
2018-07-06T06:44:20.746Z,85.5
2018-07-06T06:45:22.116Z,85.0
2018-07-06T06:46:23.495Z,85.0
2018-07-06T06:47:24.882Z,84.4
2018-07-06T06:48:26.267Z,84.0
2018-07-06T06:49:27.635Z,84.3
2018-07-06T06:50:29.026Z,84.2
2018-07-06T06:51:30.397Z,83.6
2018-07-06T06:52:32.736Z,83.4
2018-07-06T06:53:34.117Z,83.6
2018-07-06T06:54:35.494Z,83.6
2018-07-06T06:55:36.873Z,83.1
2018-07-06T06:56:38.246Z,83.2
2018-07-06T06:57:39.627Z,83.4
2018-07-06T06:58:41.011Z,82.9
2018-07-06T06:59:42.421Z,82.7
2018-07-06T07:00:44.443Z,82.4
2018-07-06T07:01:45.832Z,82.6
2018-07-06T07:02:47.220Z,82.4
2018-07-06T07:03:48.602Z,83.0
2018-07-06T07:04:49.972Z,83.0
2018-07-06T07:05:51.346Z,82.8
2018-07-06T07:06:52.755Z,82.7
2018-07-06T07:07:54.143Z,82.9
2018-07-06T07:08:55.528Z,82.8
2018-07-06T07:09:56.901Z,82.8
2018-07-06T07:10:58.274Z,82.8
2018-07-06T07:11:59.663Z,82.8
2018-07-06T07:13:01.047Z,82.8
2018-07-06T07:14:02.455Z,82.8
2018-07-06T07:15:03.821Z,82.5
2018-07-06T07:16:05.191Z,82.5
2018-07-06T07:17:06.577Z,82.7
2018-07-06T07:18:07.958Z,81.9
2018-07-06T07:19:09.332Z,82.1
2018-07-06T07:20:10.712Z,81.7
2018-07-06T07:21:12.098Z,82.2
2018-07-06T07:22:13.538Z,81.6
2018-07-06T07:23:14.876Z,81.8
2018-07-06T07:24:16.261Z,81.9
2018-07-06T07:25:17.627Z,81.9
2018-07-06T07:26:18.991Z,81.7
2018-07-06T07:27:20.378Z,81.8
2018-07-06T07:28:21.779Z,81.9
2018-07-06T07:29:23.137Z,82.0
2018-07-06T07:30:24.503Z,82.1
2018-07-06T07:31:25.892Z,82.1
2018-07-06T07:32:27.284Z,81.8
2018-07-06T07:33:28.651Z,81.5
2018-07-06T07:34:30.034Z,81.5
2018-07-06T07:35:31.437Z,81.5
2018-07-06T07:36:32.808Z,81.5
2018-07-06T07:37:34.207Z,81.3
2018-07-06T07:38:35.581Z,81.5
2018-07-06T07:39:36.960Z,81.1
2018-07-06T07:40:38.344Z,81.4
2018-07-06T07:41:39.717Z,81.0
2018-07-06T07:42:41.103Z,80.8
2018-07-06T07:43:42.478Z,80.5
2018-07-06T07:44:43.891Z,80.4
2018-07-06T07:45:45.256Z,80.5
2018-07-06T07:46:46.636Z,80.0
2018-07-06T07:47:48.068Z,80.0
2018-07-06T07:48:49.447Z,79.2
2018-07-06T07:49:50.831Z,79.4
2018-07-06T07:50:52.208Z,78.9
2018-07-06T07:51:53.567Z,78.4
2018-07-06T07:52:54.997Z,78.9
2018-07-06T07:53:56.384Z,78.5
2018-07-06T07:54:57.802Z,78.3
2018-07-06T07:55:59.157Z,77.9
2018-07-06T07:57:00.528Z,77.6
2018-07-06T07:58:01.919Z,77.5
2018-07-06T07:59:03.335Z,76.9
2018-07-06T08:00:04.783Z,76.2
2018-07-06T08:01:06.277Z,75.8
2018-07-06T08:02:07.531Z,75.8
2018-07-06T08:03:08.918Z,75.8
2018-07-06T08:04:10.300Z,75.2
2018-07-06T08:05:11.678Z,75.2
2018-07-06T08:06:13.067Z,75.1
2018-07-06T08:07:14.492Z,74.9
2018-07-06T08:08:15.872Z,75.3
2018-07-06T08:09:17.286Z,75.4
2018-07-06T08:10:18.708Z,75.0
2018-07-06T08:11:20.094Z,74.3
2018-07-06T08:12:21.483Z,74.7
2018-07-06T08:13:22.868Z,74.5
2018-07-06T08:14:24.312Z,74.7
2018-07-06T08:15:25.632Z,73.8
2018-07-06T08:16:27.017Z,73.7
2018-07-06T08:17:28.409Z,73.4
2018-07-06T08:18:29.784Z,73.1
2018-07-06T08:19:31.173Z,72.4
2018-07-06T08:20:32.597Z,72.9
2018-07-06T08:21:33.989Z,72.3
2018-07-06T08:22:35.373Z,72.2
2018-07-06T08:23:36.768Z,71.8
2018-07-06T08:24:38.172Z,71.3
2018-07-06T08:25:39.566Z,70.9
2018-07-06T08:26:40.963Z,70.8
2018-07-06T08:27:42.623Z,70.6
2018-07-06T08:28:44.955Z,70.6
2018-07-06T08:29:46.362Z,70.5
2018-07-06T08:30:47.728Z,70.2
2018-07-06T08:31:49.132Z,70.2
2018-07-06T08:32:50.507Z,70.2
2018-07-06T08:33:51.882Z,70.3
2018-07-06T08:34:53.269Z,70.3
2018-07-06T08:35:54.643Z,70.6
2018-07-06T08:36:56.040Z,70.6
2018-07-06T08:37:57.419Z,70.7
2018-07-06T08:38:58.808Z,70.7
2018-07-06T08:40:00.193Z,70.9
2018-07-06T08:41:01.573Z,70.9
2018-07-06T08:42:02.958Z,71.4
2018-07-06T08:43:04.333Z,71.1
2018-07-06T08:44:05.742Z,70.8
2018-07-06T08:45:09.917Z,70.9
2018-07-06T08:46:11.303Z,70.7
2018-07-06T08:47:12.679Z,70.5
2018-07-06T08:48:14.083Z,69.9
2018-07-06T08:49:15.468Z,69.4
2018-07-06T08:50:16.927Z,69.0
2018-07-06T08:51:18.407Z,68.4
2018-07-06T08:52:19.792Z,69.0
2018-07-06T08:53:21.171Z,68.2
2018-07-06T08:54:22.567Z,68.5
2018-07-06T08:55:23.948Z,68.0
2018-07-06T08:56:25.330Z,68.2
2018-07-06T08:57:26.707Z,67.3
2018-07-06T08:58:28.191Z,67.6
2018-07-06T08:59:29.443Z,67.1
2018-07-06T09:00:30.870Z,67.3
2018-07-06T09:01:33.234Z,67.0
2018-07-06T09:02:34.604Z,66.8
2018-07-06T09:03:35.989Z,66.8
2018-07-06T09:04:37.407Z,66.8
2018-07-06T09:05:38.774Z,66.6
2018-07-06T09:06:40.157Z,66.9
2018-07-06T09:07:41.793Z,66.8
2018-07-06T09:08:43.119Z,66.9
2018-07-06T09:09:44.580Z,67.2
2018-07-06T09:10:45.973Z,66.3
2018-07-06T09:11:47.339Z,66.7
2018-07-06T09:12:48.742Z,66.7
2018-07-06T09:13:50.127Z,66.5
2018-07-06T09:14:51.526Z,65.2
2018-07-06T09:15:52.919Z,66.0
2018-07-06T09:16:54.348Z,65.5
2018-07-06T09:17:55.754Z,65.8
2018-07-06T09:18:57.129Z,65.0
2018-07-06T09:19:58.772Z,65.1
2018-07-06T09:20:59.873Z,64.7
2018-07-06T09:22:02.020Z,64.7
2018-07-06T09:23:03.491Z,64.8
2018-07-06T09:24:04.780Z,64.5
2018-07-06T09:25:06.165Z,64.5
2018-07-06T09:26:07.951Z,64.7
2018-07-06T09:27:09.007Z,64.9
2018-07-06T09:28:10.396Z,65.3
2018-07-06T09:29:11.788Z,65.1
2018-07-06T09:30:13.174Z,64.9
2018-07-06T09:31:14.647Z,64.9
2018-07-06T09:32:16.048Z,65.1
2018-07-06T09:33:17.437Z,64.8
2018-07-06T09:34:18.822Z,64.7
2018-07-06T09:35:20.241Z,64.5
2018-07-06T09:36:21.636Z,63.6
2018-07-06T09:37:23.043Z,64.1
2018-07-06T09:38:24.430Z,63.7
2018-07-06T09:39:25.824Z,63.3
2018-07-06T09:40:27.198Z,63.8
2018-07-06T09:41:28.594Z,63.6
2018-07-06T09:42:29.979Z,63.5
2018-07-06T09:43:31.363Z,63.6
2018-07-06T09:44:32.748Z,63.5
2018-07-06T09:45:34.144Z,63.5
2018-07-06T09:46:35.520Z,63.7
2018-07-06T09:47:36.898Z,63.2
2018-07-06T09:48:38.310Z,63.4
2018-07-06T09:49:39.707Z,63.0
2018-07-06T09:50:41.118Z,62.3
2018-07-06T09:51:42.471Z,62.3
2018-07-06T09:52:43.885Z,61.8
2018-07-06T09:53:45.264Z,61.8
2018-07-06T09:54:46.649Z,61.3
2018-07-06T09:55:48.035Z,60.5
2018-07-06T09:56:49.426Z,60.1
2018-07-06T09:57:50.830Z,60.6
2018-07-06T09:58:52.200Z,59.7
2018-07-06T09:59:53.600Z,59.8
2018-07-06T10:00:54.980Z,59.8
2018-07-06T10:01:56.389Z,59.3
2018-07-06T10:02:57.843Z,58.9
2018-07-06T10:03:59.228Z,58.5
2018-07-06T10:05:00.625Z,57.7
2018-07-06T10:06:02.009Z,57.5
2018-07-06T10:07:03.406Z,56.5
2018-07-06T10:08:04.799Z,56.1
2018-07-06T10:09:06.193Z,56.2
2018-07-06T10:10:07.637Z,55.1
2018-07-06T10:11:08.994Z,55.3
2018-07-06T10:12:10.380Z,54.4
2018-07-06T10:13:11.774Z,53.9
2018-07-06T10:14:13.165Z,53.8
2018-07-06T10:15:14.600Z,53.3
2018-07-06T10:16:16.040Z,53.1
2018-07-06T10:17:17.440Z,52.4
2018-07-06T10:18:18.859Z,52.9
2018-07-06T10:19:20.263Z,52.2
2018-07-06T10:20:21.665Z,51.6
2018-07-06T10:21:23.044Z,51.5
2018-07-06T10:22:24.438Z,51.3
2018-07-06T10:23:25.831Z,51.2
2018-07-06T10:24:27.343Z,51.3
2018-07-06T10:25:28.730Z,51.0
2018-07-06T10:26:30.118Z,50.7
2018-07-06T10:27:31.511Z,50.6
2018-07-06T10:28:32.904Z,50.0
2018-07-06T10:29:34.300Z,50.0
2018-07-06T10:30:35.697Z,49.2
2018-07-06T10:31:37.085Z,48.7
2018-07-06T10:32:38.478Z,48.5
2018-07-06T10:33:39.917Z,48.7
2018-07-06T10:34:41.226Z,48.9
2018-07-06T10:35:42.609Z,48.5
2018-07-06T10:36:44.914Z,48.6
2018-07-06T10:37:46.388Z,48.7
2018-07-06T10:38:47.778Z,48.3
2018-07-06T10:39:49.266Z,48.5
2018-07-06T10:40:50.593Z,48.4
2018-07-06T10:41:51.995Z,48.2
2018-07-06T10:42:53.379Z,48.1
2018-07-06T10:43:54.764Z,48.0
2018-07-06T10:44:56.156Z,47.6
2018-07-06T10:45:57.559Z,47.5
2018-07-06T10:46:58.948Z,47.6
2018-07-06T10:48:00.347Z,47.7
2018-07-06T10:49:01.736Z,47.5
2018-07-06T10:50:03.134Z,46.6
2018-07-06T10:51:04.526Z,46.7
2018-07-06T10:52:05.921Z,46.7
2018-07-06T10:53:07.318Z,46.9
2018-07-06T10:54:08.715Z,46.7
2018-07-06T10:55:10.119Z,46.9
2018-07-06T10:56:11.516Z,46.1
2018-07-06T10:57:12.927Z,46.3
2018-07-06T10:58:14.346Z,46.5
2018-07-06T10:59:15.758Z,46.1
2018-07-06T11:00:17.162Z,45.7
2018-07-06T11:01:18.623Z,45.5
2018-07-06T11:02:20.032Z,45.8
2018-07-06T11:03:21.436Z,45.7
2018-07-06T11:04:22.827Z,45.7
2018-07-06T11:05:24.226Z,45.7
2018-07-06T11:06:25.664Z,45.7
2018-07-06T11:07:27.069Z,45.4
2018-07-06T11:08:28.521Z,45.4
2018-07-06T11:09:29.905Z,45.2
2018-07-06T11:10:31.305Z,44.6
2018-07-06T11:11:32.774Z,44.6
2018-07-06T11:12:34.086Z,45.1
2018-07-06T11:13:35.485Z,44.8
2018-07-06T11:14:36.932Z,45.0
2018-07-06T11:15:38.359Z,45.0
2018-07-06T11:16:39.870Z,44.8
2018-07-06T11:17:41.410Z,44.9
2018-07-06T11:18:42.802Z,45.0
2018-07-06T11:19:44.275Z,44.5
2018-07-06T11:20:45.676Z,44.8
2018-07-06T11:21:47.094Z,44.7
2018-07-06T11:22:48.562Z,44.9
2018-07-06T11:23:49.950Z,44.7
2018-07-06T11:24:51.371Z,44.7
2018-07-06T11:25:52.765Z,44.7
2018-07-06T11:26:54.236Z,44.3
2018-07-06T11:27:55.620Z,44.5
2018-07-06T11:28:57.012Z,44.3
2018-07-06T11:29:58.405Z,44.1
2018-07-06T11:30:59.813Z,43.7
2018-07-06T11:32:01.267Z,43.7
2018-07-06T11:33:02.625Z,43.8
2018-07-06T11:34:04.034Z,43.4
2018-07-06T11:35:05.432Z,43.6
2018-07-06T11:36:06.830Z,43.7
2018-07-06T11:37:08.236Z,43.4
2018-07-06T11:38:09.704Z,43.6
2018-07-06T11:39:11.045Z,43.5
2018-07-06T11:40:12.428Z,43.1
2018-07-06T11:41:13.875Z,43.2
2018-07-06T11:42:15.276Z,43.3
2018-07-06T11:43:16.667Z,42.8
2018-07-06T11:44:18.051Z,43.4
2018-07-06T11:45:19.525Z,42.8
2018-07-06T11:46:20.885Z,43.3
2018-07-06T11:47:22.281Z,43.2
2018-07-06T11:48:23.665Z,43.3
2018-07-06T11:49:25.064Z,43.0
2018-07-06T11:50:26.491Z,43.0
2018-07-06T11:51:27.815Z,42.7
2018-07-06T11:52:29.220Z,42.9
2018-07-06T11:53:30.600Z,42.7
2018-07-06T11:54:32.630Z,42.9
2018-07-06T11:55:34.596Z,42.5
2018-07-06T11:56:36.000Z,42.4
2018-07-06T11:57:37.412Z,43.4
2018-07-06T11:58:38.816Z,42.8
2018-07-06T11:59:40.936Z,42.7
2018-07-06T12:00:42.341Z,41.9
2018-07-06T12:01:43.815Z,41.7
2018-07-06T12:02:45.184Z,42.6
2018-07-06T12:03:46.596Z,42.0
2018-07-06T12:04:47.983Z,41.8
2018-07-06T12:05:49.382Z,42.3
2018-07-06T12:06:50.775Z,41.7
2018-07-06T12:07:52.179Z,41.9
2018-07-06T12:08:53.579Z,42.0
2018-07-06T12:09:54.984Z,42.1
2018-07-06T12:10:56.377Z,41.6
2018-07-06T12:11:57.775Z,42.3
2018-07-06T12:12:59.171Z,41.5
2018-07-06T12:14:00.575Z,41.9
2018-07-06T12:15:01.971Z,41.7
2018-07-06T12:16:04.079Z,41.8
2018-07-06T12:17:05.488Z,41.5
2018-07-06T12:18:06.879Z,41.2
2018-07-06T12:19:08.280Z,41.0
2018-07-06T12:20:09.676Z,41.0
2018-07-06T12:21:11.150Z,41.1
2018-07-06T12:22:12.481Z,41.0
2018-07-06T12:23:14.875Z,40.7
2018-07-06T12:24:16.295Z,40.8
2018-07-06T12:25:17.690Z,40.7
2018-07-06T12:26:19.121Z,41.0
2018-07-06T12:27:20.512Z,41.0
2018-07-06T12:28:21.911Z,41.1
2018-07-06T12:29:23.311Z,40.6
2018-07-06T12:30:24.713Z,40.4
2018-07-06T12:31:26.093Z,40.4
2018-07-06T12:32:27.531Z,40.3
2018-07-06T12:33:28.947Z,40.3
2018-07-06T12:34:30.356Z,40.2
2018-07-06T12:35:31.807Z,40.0
2018-07-06T12:36:33.228Z,39.6
2018-07-06T12:37:34.626Z,39.6
2018-07-06T12:38:36.027Z,39.9
2018-07-06T12:39:37.420Z,39.9
2018-07-06T12:40:38.843Z,39.6
2018-07-06T12:41:40.260Z,39.6
2018-07-06T12:42:41.643Z,39.7
2018-07-06T12:43:43.051Z,39.5
2018-07-06T12:44:45.400Z,39.6
2018-07-06T12:45:46.792Z,39.5
2018-07-06T12:46:48.190Z,39.6
2018-07-06T12:47:49.585Z,39.8
2018-07-06T12:48:51.046Z,39.5
2018-07-06T12:49:52.382Z,39.1
2018-07-06T12:50:53.781Z,39.2
2018-07-06T12:51:55.161Z,39.2
2018-07-06T12:52:56.557Z,39.1
2018-07-06T12:53:57.960Z,38.6
2018-07-06T12:54:59.351Z,38.9
2018-07-06T12:56:00.744Z,38.7
2018-07-06T12:57:02.146Z,38.6
2018-07-06T12:58:03.568Z,38.5
2018-07-06T12:59:04.935Z,38.3
2018-07-06T13:00:06.326Z,38.3
2018-07-06T13:01:07.725Z,38.4
2018-07-06T13:02:09.163Z,38.2
2018-07-06T13:03:10.563Z,38.2
2018-07-06T13:04:11.955Z,38.2
2018-07-06T13:05:13.355Z,38.0
2018-07-06T13:06:15.608Z,37.9
2018-07-06T13:07:16.967Z,37.9
2018-07-06T13:08:18.392Z,37.7
2018-07-06T13:09:19.791Z,37.8
2018-07-06T13:10:21.247Z,38.0
2018-07-06T13:11:22.612Z,37.9
2018-07-06T13:12:24.022Z,37.5
2018-07-06T13:13:25.416Z,37.8
2018-07-06T13:14:26.821Z,37.6
2018-07-06T13:15:28.222Z,37.9
2018-07-06T13:16:29.609Z,37.9
2018-07-06T13:17:31.003Z,38.2
2018-07-06T13:18:32.393Z,38.1
2018-07-06T13:19:34.538Z,38.2
2018-07-06T13:20:35.152Z,38.9
2018-07-06T13:21:36.555Z,38.8
2018-07-06T13:22:37.941Z,39.2
2018-07-06T13:23:39.347Z,38.9
2018-07-06T13:24:40.733Z,38.8
2018-07-06T13:25:42.126Z,39.2
2018-07-06T13:26:43.628Z,39.5
2018-07-06T13:27:44.994Z,39.7
2018-07-06T13:28:46.395Z,40.2
2018-07-06T13:29:47.793Z,40.1
2018-07-06T13:30:49.188Z,40.4
2018-07-06T13:31:50.566Z,40.9
2018-07-06T13:32:51.947Z,40.9
2018-07-06T13:33:53.382Z,41.0
2018-07-06T13:34:54.692Z,40.7
2018-07-06T13:35:56.078Z,41.4
2018-07-06T13:36:57.462Z,41.7